createdAt,value
2019-03-25T17:05:57.890Z,48.64
2019-03-25T17:06:23.819Z,48.11
2019-03-25T17:06:49.900Z,47.97
2019-03-25T17:07:15.824Z,47.73
2019-03-25T17:07:41.824Z,47.73
2019-03-25T17:08:07.824Z,47.22
2019-03-25T17:08:33.861Z,47.29
2019-03-25T17:08:59.971Z,47.21
2019-03-25T17:09:25.828Z,47.06
2019-03-25T17:09:51.827Z,46.9
2019-03-25T17:10:17.832Z,46.75
2019-03-25T17:10:43.845Z,46.58
2019-03-25T17:11:09.904Z,46.43
2019-03-25T17:11:36.335Z,46.59
2019-03-25T17:12:01.916Z,46.39
2019-03-25T17:12:27.832Z,46.32
2019-03-25T17:12:53.836Z,46.39
2019-03-25T17:13:19.926Z,46.24
2019-03-25T17:13:46.027Z,46.17
2019-03-25T17:14:11.842Z,46.33
2019-03-25T17:14:37.903Z,46.11
2019-03-25T17:15:03.840Z,45.87
2019-03-25T17:15:29.906Z,45.84
2019-03-25T17:15:55.832Z,45.7
2019-03-25T17:16:21.836Z,45.71
2019-03-25T17:16:47.844Z,45.54
2019-03-25T17:17:13.902Z,45.44
2019-03-25T17:17:39.913Z,45.82
2019-03-25T17:18:05.841Z,45.67
2019-03-25T17:18:31.844Z,45.62
2019-03-25T17:18:57.838Z,45.53
2019-03-25T17:19:23.847Z,45.64
2019-03-25T17:19:49.915Z,45.35
2019-03-25T17:20:15.844Z,45.22
2019-03-25T17:20:41.911Z,45.28
2019-03-25T17:21:07.836Z,45.31
2019-03-25T17:21:33.844Z,45.21
2019-03-25T17:21:59.920Z,45.08
2019-03-25T17:22:25.844Z,45.23
2019-03-25T17:22:51.862Z,45.08
2019-03-25T17:23:17.908Z,45.07
2019-03-25T17:23:43.844Z,45.14
2019-03-25T17:24:09.923Z,45.04
2019-03-25T17:24:35.961Z,44.91
2019-03-25T17:25:01.847Z,44.85
2019-03-25T17:25:27.851Z,44.71
2019-03-25T17:25:53.847Z,44.66
2019-03-25T17:26:19.925Z,44.53
2019-03-25T17:26:45.850Z,44.69
2019-03-25T17:27:11.848Z,44.61
2019-03-25T17:27:37.856Z,44.74
2019-03-25T17:28:03.859Z,44.48
2019-03-25T17:28:29.945Z,44.55
2019-03-25T17:28:55.966Z,44.44
2019-03-25T17:29:21.866Z,44.62
2019-03-25T17:29:47.851Z,44.39
2019-03-25T17:30:13.854Z,44.28
2019-03-25T17:30:39.945Z,44.35
2019-03-25T17:31:05.860Z,44.38
2019-03-25T17:31:31.870Z,44.38
2019-03-25T17:31:57.922Z,44.35
2019-03-25T17:32:23.858Z,44.17
2019-03-25T17:32:49.936Z,44.29
2019-03-25T17:33:15.858Z,44.38
2019-03-25T17:33:41.864Z,44.38
2019-03-25T17:34:07.873Z,44.33
2019-03-25T17:34:33.928Z,44.13
2019-03-25T17:34:59.937Z,44.01
2019-03-25T17:35:25.863Z,44.14
2019-03-25T17:35:55.082Z,44.19
2019-03-25T17:36:18.072Z,44.12
2019-03-25T17:36:43.871Z,43.98
2019-03-25T17:37:10.018Z,44.02
2019-03-25T17:37:35.868Z,43.88
2019-03-25T17:38:02.150Z,43.98
2019-03-25T17:38:27.867Z,43.86
2019-03-25T17:38:53.879Z,43.7
2019-03-25T17:39:19.943Z,43.74
2019-03-25T17:39:45.863Z,43.78
2019-03-25T17:40:11.869Z,43.71
2019-03-25T17:40:37.873Z,43.99
2019-03-25T17:41:03.873Z,43.98
2019-03-25T17:41:29.957Z,43.76
2019-03-25T17:41:55.873Z,43.64
2019-03-25T17:42:21.893Z,43.78
2019-03-25T17:42:48.032Z,43.71
2019-03-25T17:43:13.939Z,43.65
2019-03-25T17:43:39.946Z,43.64
2019-03-25T17:44:05.875Z,43.55
2019-03-25T17:44:31.872Z,43.53
2019-03-25T17:44:57.878Z,43.57
2019-03-25T17:45:23.884Z,43.31
2019-03-25T17:45:49.954Z,43.47
2019-03-25T17:46:15.949Z,43.44
2019-03-25T17:46:41.879Z,43.64
2019-03-25T17:47:08.271Z,43.38
2019-03-25T17:47:34.106Z,43.61
2019-03-25T17:47:59.959Z,43.39
2019-03-25T17:48:25.890Z,43.39
2019-03-25T17:48:51.891Z,43.29
2019-03-25T17:49:18.503Z,43.28
2019-03-25T17:49:44.010Z,43.24
2019-03-25T17:50:09.959Z,43.33
2019-03-25T17:50:35.881Z,43.2
2019-03-25T17:51:01.884Z,43.25
2019-03-25T17:51:27.886Z,43.26
2019-03-25T17:51:53.888Z,43.12
2019-03-25T17:52:19.963Z,43.13
2019-03-25T17:52:45.954Z,43.13
2019-03-25T17:53:11.892Z,43.1
2019-03-25T17:53:37.887Z,43.16
2019-03-25T17:54:03.886Z,43.04
2019-03-25T17:54:29.970Z,43.01
2019-03-25T17:54:55.921Z,42.98
2019-03-25T17:55:21.888Z,42.99
2019-03-25T17:55:47.895Z,42.86
2019-03-25T17:56:13.893Z,42.73
2019-03-25T17:56:39.971Z,42.83
2019-03-25T17:57:05.901Z,42.74
2019-03-25T17:57:31.906Z,42.8
2019-03-25T17:57:57.914Z,42.8
2019-03-25T17:58:23.972Z,42.75
2019-03-25T17:58:49.971Z,42.68
2019-03-25T17:59:15.900Z,42.55
2019-03-25T17:59:41.906Z,42.74
2019-03-25T18:00:07.898Z,42.69
2019-03-25T18:00:33.898Z,42.8
2019-03-25T18:00:59.997Z,42.75
2019-03-25T18:01:26.017Z,42.65
2019-03-25T18:01:51.967Z,42.51
2019-03-25T18:02:17.909Z,42.61
2019-03-25T18:02:43.897Z,42.61
2019-03-25T18:03:09.980Z,42.52
2019-03-25T18:03:35.901Z,42.52
2019-03-25T18:04:02.009Z,42.58
2019-03-25T18:04:27.914Z,42.62
2019-03-25T18:04:53.968Z,42.53
2019-03-25T18:05:19.989Z,42.5
2019-03-25T18:05:46.196Z,42.46
2019-03-25T18:06:11.909Z,42.34
2019-03-25T18:06:37.943Z,42.31
2019-03-25T18:07:03.914Z,42.33
2019-03-25T18:07:29.992Z,42.24
2019-03-25T18:07:55.908Z,42.32
2019-03-25T18:08:21.907Z,42.31
2019-03-25T18:08:47.912Z,42.23
2019-03-25T18:09:13.915Z,42.2
2019-03-25T18:09:39.987Z,42.37
2019-03-25T18:10:06.038Z,42.23
2019-03-25T18:10:32.374Z,42.14
2019-03-25T18:10:57.980Z,42.14
2019-03-25T18:11:23.914Z,42.21
2019-03-25T18:11:49.988Z,42.2
2019-03-25T18:12:15.912Z,42.12
2019-03-25T18:12:41.914Z,42.28
2019-03-25T18:13:07.916Z,42.24
2019-03-25T18:13:33.928Z,42.09
2019-03-25T18:14:00.069Z,42.04
2019-03-25T18:14:25.917Z,42.03
2019-03-25T18:14:51.928Z,41.96
2019-03-25T18:15:18.374Z,41.98
2019-03-25T18:15:43.921Z,41.96
2019-03-25T18:16:09.998Z,41.96
2019-03-25T18:16:35.932Z,41.94
2019-03-25T18:17:01.922Z,42.07
2019-03-25T18:17:27.984Z,42.08
2019-03-25T18:17:53.919Z,41.84
2019-03-25T18:18:19.997Z,41.92
2019-03-25T18:18:45.929Z,41.88
2019-03-25T18:19:11.917Z,41.76
2019-03-25T18:19:37.923Z,41.71
2019-03-25T18:20:04.258Z,41.71
2019-03-25T18:20:30.602Z,41.75
2019-03-25T18:20:56.372Z,41.8
2019-03-25T18:21:21.929Z,41.68
2019-03-25T18:21:47.942Z,41.68
2019-03-25T18:22:14.017Z,41.64
2019-03-25T18:22:40.016Z,41.64
2019-03-25T18:23:05.934Z,41.58
2019-03-25T18:23:31.928Z,41.57
2019-03-25T18:23:57.930Z,41.57
2019-03-25T18:24:24.000Z,41.55
2019-03-25T18:24:50.069Z,41.56
2019-03-25T18:25:15.947Z,41.59
2019-03-25T18:25:41.940Z,41.53
2019-03-25T18:26:08.004Z,41.55
2019-03-25T18:26:33.930Z,41.51
2019-03-25T18:27:00.011Z,41.46
2019-03-25T18:27:25.945Z,41.58
2019-03-25T18:27:51.940Z,41.52
2019-03-25T18:28:17.950Z,41.51
2019-03-25T18:28:44.094Z,41.37
2019-03-25T18:29:10.020Z,41.4
2019-03-25T18:29:35.943Z,41.46
2019-03-25T18:30:01.940Z,41.35
2019-03-25T18:30:27.942Z,41.36
2019-03-25T18:30:53.950Z,41.39
2019-03-25T18:31:20.012Z,41.52
2019-03-25T18:31:46.015Z,41.33
2019-03-25T18:32:11.971Z,41.29
2019-03-25T18:32:37.942Z,41.28
2019-03-25T18:33:03.947Z,41.2
2019-03-25T18:33:30.023Z,41.2
2019-03-25T18:33:55.947Z,41.28
2019-03-25T18:34:21.946Z,41.36
2019-03-25T18:34:48.023Z,41.29
2019-03-25T18:35:13.997Z,41.32
2019-03-25T18:35:40.024Z,41.25
2019-03-25T18:36:05.965Z,41.18
2019-03-25T18:36:32.049Z,41.23
2019-03-25T18:36:57.946Z,41.2
2019-03-25T18:37:23.994Z,41.24
2019-03-25T18:37:50.089Z,41.21
2019-03-25T18:38:15.957Z,41.21
2019-03-25T18:38:42.024Z,41.14
2019-03-25T18:39:08.029Z,41.16
2019-03-25T18:39:33.953Z,41.13
2019-03-25T18:40:00.060Z,41.23
2019-03-25T18:40:25.957Z,41.17
2019-03-25T18:40:51.966Z,41.13
2019-03-25T18:41:17.962Z,41.01
2019-03-25T18:41:44.022Z,41.09
2019-03-25T18:42:10.037Z,41.11
2019-03-25T18:42:36.392Z,41.04
2019-03-25T18:43:02.292Z,41.07
2019-03-25T18:43:27.963Z,41.09
2019-03-25T18:43:53.957Z,41.03
2019-03-25T18:44:20.048Z,40.99
2019-03-25T18:44:46.040Z,40.93
2019-03-25T18:45:11.968Z,41.02
2019-03-25T18:45:37.973Z,41.01
2019-03-25T18:46:03.967Z,40.93
2019-03-25T18:46:30.051Z,40.97
2019-03-25T18:46:55.975Z,41.03
2019-03-25T18:47:21.962Z,40.95
2019-03-25T18:47:48.037Z,40.87
2019-03-25T18:48:13.966Z,40.86
2019-03-25T18:48:40.049Z,40.86
2019-03-25T18:49:05.970Z,40.86
2019-03-25T18:49:31.967Z,40.83
2019-03-25T18:49:57.969Z,40.92
2019-03-25T18:50:23.983Z,40.82
2019-03-25T18:50:50.115Z,40.86
2019-03-25T18:51:15.981Z,40.87
2019-03-25T18:51:41.971Z,40.86
2019-03-25T18:52:07.974Z,40.84
2019-03-25T18:52:33.971Z,40.95
2019-03-25T18:53:00.065Z,40.8
2019-03-25T18:53:26.047Z,40.92
2019-03-25T18:53:51.968Z,40.83
2019-03-25T18:54:17.974Z,40.83
2019-03-25T18:54:43.981Z,40.86
2019-03-25T18:55:10.060Z,40.76
2019-03-25T18:55:35.975Z,40.78
2019-03-25T18:56:01.985Z,40.8
2019-03-25T18:56:27.985Z,40.68
2019-03-25T18:56:53.973Z,40.83
2019-03-25T18:57:20.051Z,40.81
2019-03-25T18:57:45.987Z,40.71
2019-03-25T18:58:11.986Z,40.74
2019-03-25T18:58:37.982Z,40.65
2019-03-25T18:59:03.990Z,40.71
2019-03-25T18:59:30.130Z,40.79
2019-03-25T18:59:55.988Z,40.67
2019-03-25T19:00:21.983Z,40.65
2019-03-25T19:00:47.990Z,40.71
2019-03-25T19:01:13.987Z,40.69
2019-03-25T19:01:40.065Z,40.7
2019-03-25T19:02:05.987Z,40.57
2019-03-25T19:02:31.989Z,40.62
2019-03-25T19:02:57.990Z,40.68
2019-03-25T19:03:23.986Z,40.62
2019-03-25T19:03:50.068Z,40.61
2019-03-25T19:04:15.998Z,40.63
2019-03-25T19:04:41.991Z,40.51
2019-03-25T19:05:07.993Z,40.54
2019-03-25T19:05:34.074Z,40.56
2019-03-25T19:06:00.068Z,40.44
2019-03-25T19:06:25.999Z,40.49
2019-03-25T19:06:51.994Z,40.6
2019-03-25T19:07:17.992Z,40.6
2019-03-25T19:07:43.994Z,40.52
2019-03-25T19:08:10.064Z,40.42
2019-03-25T19:08:35.988Z,40.49
2019-03-25T19:09:01.990Z,40.45
2019-03-25T19:09:27.989Z,40.38
2019-03-25T19:09:53.989Z,40.38
2019-03-25T19:10:20.360Z,40.58
2019-03-25T19:10:46.009Z,40.48
2019-03-25T19:11:12.067Z,40.42
2019-03-25T19:11:37.989Z,40.43
2019-03-25T19:12:03.994Z,40.4
2019-03-25T19:12:30.079Z,40.36
2019-03-25T19:12:55.994Z,40.46
2019-03-25T19:13:21.995Z,40.56
2019-03-25T19:13:48.288Z,40.61
2019-03-25T19:14:14.059Z,40.45
2019-03-25T19:14:40.073Z,40.39
2019-03-25T19:15:06.001Z,40.4
2019-03-25T19:15:32.001Z,40.49
2019-03-25T19:15:58.000Z,40.43
2019-03-25T19:16:24.012Z,40.4
2019-03-25T19:16:50.151Z,40.48
2019-03-25T19:17:16.013Z,40.45
2019-03-25T19:17:42.018Z,40.42
2019-03-25T19:18:08.039Z,40.46
2019-03-25T19:18:34.017Z,40.36
2019-03-25T19:19:00.102Z,40.4
2019-03-25T19:19:26.082Z,40.4
2019-03-25T19:19:52.020Z,40.53
2019-03-25T19:20:18.012Z,40.54
2019-03-25T19:20:44.012Z,40.42
2019-03-25T19:21:10.092Z,40.35
2019-03-25T19:21:36.140Z,40.41
2019-03-25T19:22:02.017Z,40.35
2019-03-25T19:22:28.014Z,40.39
2019-03-25T19:22:54.017Z,40.43
2019-03-25T19:23:20.090Z,40.33
2019-03-25T19:23:46.029Z,40.42
2019-03-25T19:24:12.015Z,40.3
2019-03-25T19:24:38.021Z,40.38
2019-03-25T19:25:04.040Z,40.26
2019-03-25T19:25:30.161Z,40.34
2019-03-25T19:25:56.084Z,40.38
2019-03-25T19:26:22.024Z,40.26
2019-03-25T19:26:48.047Z,40.29
2019-03-25T19:27:14.026Z,40.27
2019-03-25T19:27:40.104Z,40.33
2019-03-25T19:28:06.093Z,40.44
2019-03-25T19:28:32.027Z,40.33
2019-03-25T19:28:58.021Z,40.32
2019-03-25T19:29:24.022Z,40.35
2019-03-25T19:29:50.106Z,40.31
2019-03-25T19:30:16.034Z,40.29
2019-03-25T19:30:42.022Z,40.25
2019-03-25T19:31:08.033Z,40.21
2019-03-25T19:32:00.106Z,40.26
2019-03-25T19:32:26.041Z,40.31
2019-03-25T19:32:52.028Z,40.34
2019-03-25T19:33:18.430Z,40.26
2019-03-25T19:33:44.035Z,40.21
2019-03-25T19:34:10.120Z,40.27
2019-03-25T19:34:36.113Z,40.29
2019-03-25T19:35:02.034Z,40.37
2019-03-25T19:35:28.034Z,40.28
2019-03-25T19:35:54.036Z,40.26
2019-03-25T19:36:20.114Z,40.24
2019-03-25T19:36:46.050Z,40.29
2019-03-25T19:37:12.115Z,40.25
2019-03-25T19:37:38.032Z,40.16
2019-03-25T19:38:04.040Z,40.11
2019-03-25T19:38:30.116Z,40.24
2019-03-25T19:38:56.042Z,40.21
2019-03-25T19:39:22.040Z,40.23
2019-03-25T19:39:48.487Z,40.16
2019-03-25T19:40:14.067Z,40.23
2019-03-25T19:40:40.189Z,40.32
2019-03-25T19:41:06.042Z,40.36
2019-03-25T19:41:32.044Z,40.24
2019-03-25T19:41:58.050Z,40.24
2019-03-25T19:42:24.043Z,40.34
2019-03-25T19:42:50.437Z,40.29
2019-03-25T19:43:16.047Z,40.29
2019-03-25T19:43:42.046Z,40.24
2019-03-25T19:44:08.042Z,40.3
2019-03-25T19:44:34.519Z,40.23
2019-03-25T19:45:00.155Z,40.3
2019-03-25T19:45:26.054Z,40.24
2019-03-25T19:45:52.052Z,40.21
2019-03-25T19:46:18.053Z,40.18
2019-03-25T19:46:44.064Z,40.17
2019-03-25T19:47:10.197Z,40.18
2019-03-25T19:47:36.050Z,40.2
2019-03-25T19:48:02.058Z,40.34
2019-03-25T19:48:28.054Z,40.29
2019-03-25T19:48:54.056Z,40.16
2019-03-25T19:49:20.135Z,40.33
2019-03-25T19:49:46.063Z,40.24
2019-03-25T19:50:12.126Z,40.2
2019-03-25T19:50:38.060Z,40.29
2019-03-25T19:51:04.058Z,40.24
2019-03-25T19:51:30.131Z,40.33
2019-03-25T19:51:56.059Z,40.29
2019-03-25T19:52:22.058Z,40.23
2019-03-25T19:52:48.347Z,40.18
2019-03-25T19:53:14.064Z,40.17
2019-03-25T19:53:40.139Z,40.22
2019-03-25T19:54:06.066Z,40.11
2019-03-25T19:54:32.143Z,40.17
2019-03-25T19:54:58.065Z,40.11
2019-03-25T19:55:24.065Z,40.11
2019-03-25T19:55:50.146Z,40.13
2019-03-25T19:56:16.072Z,40.11
2019-03-25T19:56:42.086Z,40.16
2019-03-25T19:57:08.136Z,40.09
2019-03-25T19:57:34.067Z,40.06
2019-03-25T19:58:00.150Z,40.13
2019-03-25T19:58:26.070Z,40.22
2019-03-25T19:58:52.064Z,40.22
2019-03-25T19:59:18.076Z,40.17
2019-03-25T19:59:44.078Z,40.2
2019-03-25T20:00:10.160Z,40.16
2019-03-25T20:00:36.148Z,40.15
2019-03-25T20:01:02.081Z,40.21
2019-03-25T20:01:28.071Z,40.17
2019-03-25T20:01:54.075Z,40.24
2019-03-25T20:02:20.226Z,40.28
2019-03-25T20:02:46.079Z,40.15
2019-03-25T20:03:12.085Z,40.26
2019-03-25T20:03:38.215Z,40.17
2019-03-25T20:04:04.788Z,40.2
2019-03-25T20:04:30.154Z,40.18
2019-03-25T20:04:56.077Z,40.12
2019-03-25T20:05:22.079Z,40.15
2019-03-25T20:05:48.118Z,40.15
2019-03-25T20:06:14.081Z,40.2
2019-03-25T20:06:40.163Z,40.25
2019-03-25T20:07:06.082Z,40.18
2019-03-25T20:07:32.082Z,40.26
2019-03-25T20:07:58.079Z,40.28
2019-03-25T20:08:24.084Z,40.21
2019-03-25T20:08:50.166Z,40.32
2019-03-25T20:09:16.087Z,40.28
2019-03-25T20:09:42.085Z,40.23
2019-03-25T20:10:08.081Z,40.21
2019-03-25T20:10:34.149Z,40.21
2019-03-25T20:11:00.160Z,40.16
2019-03-25T20:11:26.085Z,40.1
2019-03-25T20:11:52.089Z,40.14
2019-03-25T20:12:18.089Z,40.11
2019-03-25T20:12:44.092Z,40.14
2019-03-25T20:13:10.229Z,40.09
2019-03-25T20:13:36.093Z,40.1
2019-03-25T20:14:02.092Z,40.12
2019-03-25T20:14:28.088Z,40.11
2019-03-25T20:14:54.092Z,40.13
2019-03-25T20:15:20.176Z,40.1
2019-03-25T20:15:46.098Z,40.17
2019-03-25T20:16:12.163Z,40.17
2019-03-25T20:16:38.087Z,40.14
2019-03-25T20:17:04.091Z,40.16
2019-03-25T20:17:30.170Z,40.18
2019-03-25T20:17:56.095Z,40.1
2019-03-25T20:18:22.093Z,40.11
2019-03-25T20:18:48.468Z,40.08
2019-03-25T20:19:14.248Z,40.1
2019-03-25T20:19:40.174Z,40.06
2019-03-25T20:20:06.098Z,40.06
2019-03-25T20:20:32.101Z,40.12
2019-03-25T20:20:58.097Z,40.11
2019-03-25T20:21:24.098Z,40.07
2019-03-25T20:21:50.195Z,40.15
2019-03-25T20:22:16.171Z,40.01
2019-03-25T20:22:42.101Z,40.07
2019-03-25T20:23:08.104Z,40.04
2019-03-25T20:23:34.139Z,40.09
2019-03-25T20:24:00.179Z,40.06
2019-03-25T20:24:26.123Z,40.2
2019-03-25T20:24:52.175Z,40.12
2019-03-25T20:25:18.176Z,40.15
2019-03-25T20:25:44.104Z,40.1
2019-03-25T20:26:10.188Z,40.06
2019-03-25T20:26:36.111Z,40.02
2019-03-25T20:27:02.104Z,40.18
2019-03-25T20:27:28.116Z,40.16
2019-03-25T20:27:54.118Z,40.14
2019-03-25T20:28:20.251Z,40.22
2019-03-25T20:28:46.110Z,40.09
2019-03-25T20:29:12.114Z,40.09
2019-03-25T20:29:38.113Z,40.08
2019-03-25T20:30:04.113Z,40.14
2019-03-25T20:30:30.191Z,40.08
2019-03-25T20:30:56.175Z,40.04
2019-03-25T20:31:22.116Z,40.1
2019-03-25T20:31:48.448Z,40.09
2019-03-25T20:32:14.119Z,40.04
2019-03-25T20:32:40.207Z,40.01
2019-03-25T20:33:06.120Z,40.09
2019-03-25T20:33:32.116Z,40.02
2019-03-25T20:33:58.129Z,40.05
2019-03-25T20:34:24.183Z,40.02
2019-03-25T20:34:50.191Z,40.02
2019-03-25T20:35:16.118Z,40.09
2019-03-25T20:35:42.116Z,40.07
2019-03-25T20:36:08.119Z,40.08
2019-03-25T20:36:34.120Z,40.05
2019-03-25T20:37:00.214Z,40.11
2019-03-25T20:37:26.132Z,40.08
2019-03-25T20:37:52.196Z,40.02
2019-03-25T20:38:18.125Z,40.01
2019-03-25T20:38:44.132Z,40.06
2019-03-25T20:39:10.196Z,39.94
2019-03-25T20:39:36.122Z,39.96
2019-03-25T20:40:02.129Z,39.99
2019-03-25T20:40:28.136Z,40.01
2019-03-25T20:40:54.195Z,39.91
2019-03-25T20:41:20.208Z,39.88
2019-03-25T20:41:46.131Z,39.97
2019-03-25T20:42:12.139Z,39.93
2019-03-25T20:42:38.135Z,40
2019-03-25T20:43:04.236Z,40.03
2019-03-25T20:43:30.223Z,40.12
2019-03-25T20:43:56.205Z,40.08
2019-03-25T20:44:22.233Z,40.1
2019-03-25T20:44:48.332Z,40.18
2019-03-25T20:45:14.137Z,40.13
2019-03-25T20:45:40.219Z,40.18
2019-03-25T20:46:06.142Z,40.15
2019-03-25T20:46:32.139Z,40.06
2019-03-25T20:46:58.136Z,40.06
2019-03-25T20:47:24.133Z,40.05
2019-03-25T20:47:50.218Z,40.06
2019-03-25T20:48:16.142Z,40.02
2019-03-25T20:48:42.368Z,40.04
2019-03-25T20:49:08.139Z,40.04
2019-03-25T20:49:34.142Z,40.06
2019-03-25T20:50:00.222Z,39.98
2019-03-25T20:50:26.146Z,40.03
2019-03-25T20:50:52.139Z,40.02
2019-03-25T20:51:18.146Z,40.03
2019-03-25T20:51:44.146Z,40.03
2019-03-25T20:52:10.217Z,40.01
2019-03-25T20:52:36.148Z,40.04
2019-03-25T20:53:02.152Z,40.03
2019-03-25T20:53:28.143Z,40.06
2019-03-25T20:53:54.145Z,40.08
2019-03-25T20:54:20.226Z,40.11
2019-03-25T20:54:46.153Z,40.03
2019-03-25T20:55:12.159Z,40.07
2019-03-25T20:55:38.145Z,40.08
2019-03-25T20:56:04.560Z,40.07
2019-03-25T20:56:30.234Z,40.08
2019-03-25T20:56:56.154Z,40.08
2019-03-25T20:57:22.151Z,40.02
2019-03-25T20:57:48.168Z,40
2019-03-25T20:58:14.151Z,39.98
2019-03-25T20:58:40.236Z,40.01
2019-03-25T20:59:06.224Z,40.04
2019-03-25T20:59:32.152Z,39.99
2019-03-25T20:59:58.155Z,39.99
2019-03-25T21:00:24.155Z,40
2019-03-25T21:00:50.239Z,39.99
2019-03-25T21:01:16.163Z,39.99
2019-03-25T21:01:42.153Z,39.92
2019-03-25T21:02:08.156Z,39.95
2019-03-25T21:02:34.171Z,39.94
2019-03-25T21:03:00.236Z,39.84
2019-03-25T21:03:26.160Z,39.9
2019-03-25T21:03:52.160Z,39.91
2019-03-25T21:04:18.172Z,39.94
2019-03-25T21:04:44.227Z,39.97
2019-03-25T21:05:10.238Z,39.94
2019-03-25T21:05:36.166Z,39.91
2019-03-25T21:06:02.172Z,39.91
2019-03-25T21:06:28.168Z,39.88
2019-03-25T21:06:54.167Z,39.94
2019-03-25T21:07:20.246Z,39.89
2019-03-25T21:07:46.184Z,39.86
2019-03-25T21:08:12.162Z,39.86
2019-03-25T21:08:38.233Z,39.86
2019-03-25T21:09:04.171Z,39.83
2019-03-25T21:09:30.249Z,39.83
2019-03-25T21:09:56.173Z,39.87
2019-03-25T21:10:22.171Z,39.89
2019-03-25T21:10:48.462Z,39.89
2019-03-25T21:11:14.173Z,39.85
2019-03-25T21:11:40.250Z,39.84
2019-03-25T21:12:06.176Z,39.84
2019-03-25T21:12:32.174Z,39.81
2019-03-25T21:12:58.172Z,39.89
2019-03-25T21:13:24.176Z,39.87
2019-03-25T21:13:50.258Z,39.8
2019-03-25T21:14:16.181Z,39.8
2019-03-25T21:14:42.179Z,39.84
2019-03-25T21:15:08.179Z,39.85
2019-03-25T21:15:34.511Z,39.88
2019-03-25T21:16:00.261Z,39.87
2019-03-25T21:16:26.178Z,39.83
2019-03-25T21:16:52.192Z,39.82
2019-03-25T21:17:18.247Z,39.81
2019-03-25T21:17:44.174Z,39.82
2019-03-25T21:18:10.259Z,39.79
2019-03-25T21:18:36.181Z,39.84
2019-03-25T21:19:02.193Z,39.79
2019-03-25T21:19:28.186Z,39.81
2019-03-25T21:19:54.186Z,39.77
2019-03-25T21:20:20.328Z,39.72
2019-03-25T21:20:46.190Z,39.74
2019-03-25T21:21:12.187Z,39.77
2019-03-25T21:21:38.188Z,39.72
2019-03-25T21:22:04.187Z,39.72
2019-03-25T21:22:30.264Z,39.69
2019-03-25T21:22:56.189Z,39.71
2019-03-25T21:23:22.206Z,39.71
2019-03-25T21:23:48.185Z,39.71
2019-03-25T21:24:14.190Z,39.71
2019-03-25T21:24:40.277Z,39.72
2019-03-25T21:25:06.196Z,39.76
2019-03-25T21:25:32.307Z,39.76
2019-03-25T21:25:58.195Z,39.74
2019-03-25T21:26:24.208Z,39.73
2019-03-25T21:26:50.269Z,39.79
2019-03-25T21:27:16.288Z,39.76
2019-03-25T21:27:42.195Z,39.83
2019-03-25T21:28:08.195Z,39.72
2019-03-25T21:28:34.202Z,39.77
2019-03-25T21:29:00.275Z,39.81
2019-03-25T21:29:26.202Z,39.76
2019-03-25T21:29:52.211Z,39.72
2019-03-25T21:30:18.198Z,39.71
2019-03-25T21:30:44.201Z,39.7
2019-03-25T21:31:10.278Z,39.79
2019-03-25T21:31:36.206Z,39.79
2019-03-25T21:32:02.200Z,39.74
2019-03-25T21:32:28.199Z,39.76
2019-03-25T21:32:54.201Z,39.82
2019-03-25T21:33:20.297Z,39.78
2019-03-25T21:33:46.279Z,39.76
2019-03-25T21:34:12.234Z,39.71
2019-03-25T21:34:38.207Z,39.76
2019-03-25T21:35:04.209Z,39.76
2019-03-25T21:35:30.283Z,39.76
2019-03-25T21:35:56.223Z,39.77
2019-03-25T21:36:22.203Z,39.73
2019-03-25T21:36:48.205Z,39.74
2019-03-25T21:37:14.205Z,39.74
2019-03-25T21:37:40.295Z,39.76
2019-03-25T21:38:06.470Z,39.79
2019-03-25T21:38:32.259Z,39.78
2019-03-25T21:38:58.214Z,39.75
2019-03-25T21:39:24.223Z,39.73
2019-03-25T21:39:50.356Z,39.74
2019-03-25T21:40:16.287Z,39.72
2019-03-25T21:40:42.243Z,39.73
2019-03-25T21:41:08.210Z,39.79
2019-03-25T21:41:34.215Z,39.69
2019-03-25T21:42:00.295Z,39.69
2019-03-25T21:42:26.291Z,39.68
2019-03-25T21:42:52.222Z,39.7
2019-03-25T21:43:18.221Z,39.72
2019-03-25T21:43:44.220Z,39.74
2019-03-25T21:44:10.362Z,39.69
2019-03-25T21:44:36.220Z,39.63
2019-03-25T21:45:02.313Z,39.63
2019-03-25T21:45:28.231Z,39.68
2019-03-25T21:45:54.231Z,39.7
2019-03-25T21:46:20.298Z,39.68
2019-03-25T21:46:46.228Z,39.66
2019-03-25T21:47:12.299Z,39.68
2019-03-25T21:47:38.220Z,39.62
2019-03-25T21:48:04.224Z,39.65
2019-03-25T21:48:30.395Z,39.67
2019-03-25T21:48:56.222Z,39.68
2019-03-25T21:49:22.225Z,39.61
2019-03-25T21:49:48.230Z,39.7
2019-03-25T21:50:14.289Z,39.71
2019-03-25T21:50:40.296Z,39.59
2019-03-25T21:51:06.223Z,39.64
2019-03-25T21:51:32.234Z,39.53
2019-03-25T21:51:58.228Z,39.55
2019-03-25T21:52:24.227Z,39.58
2019-03-25T21:52:50.309Z,39.56
2019-03-25T21:53:16.235Z,39.55
2019-03-25T21:53:42.234Z,39.57
2019-03-25T21:54:08.297Z,39.57
2019-03-25T21:54:34.236Z,39.63
2019-03-25T21:55:00.312Z,39.55
2019-03-25T21:55:26.246Z,39.54
2019-03-25T21:55:52.232Z,39.55
2019-03-25T21:56:18.238Z,39.53
2019-03-25T21:56:44.235Z,39.52
2019-03-25T21:57:10.325Z,39.51
2019-03-25T21:57:36.237Z,39.54
2019-03-25T21:58:02.244Z,39.54
2019-03-25T21:58:28.865Z,39.57
2019-03-25T21:58:54.244Z,39.57
2019-03-25T21:59:20.321Z,39.55
2019-03-25T21:59:46.253Z,39.55
2019-03-25T22:00:12.312Z,39.58
2019-03-25T22:00:38.250Z,39.51
2019-03-25T22:01:04.239Z,39.53
2019-03-25T22:01:30.324Z,39.53
2019-03-25T22:01:56.244Z,39.51
2019-03-25T22:02:22.243Z,39.54
2019-03-25T22:02:48.279Z,39.52
2019-03-25T22:03:14.321Z,39.53
2019-03-25T22:03:40.322Z,39.54
2019-03-25T22:04:06.249Z,39.55
2019-03-25T22:04:32.252Z,39.55
2019-03-25T22:04:58.250Z,39.54
2019-03-25T22:05:24.253Z,39.55
2019-03-25T22:05:50.371Z,39.55
2019-03-25T22:06:16.262Z,39.55
2019-03-25T22:06:42.594Z,39.54
2019-03-25T22:07:08.322Z,39.5
2019-03-25T22:07:34.256Z,39.55
2019-03-25T22:08:00.337Z,39.54
2019-03-25T22:08:26.255Z,39.51
2019-03-25T22:08:52.258Z,39.53
2019-03-25T22:09:18.473Z,39.5
2019-03-25T22:09:44.253Z,39.43
2019-03-25T22:10:10.332Z,39.46
2019-03-25T22:10:37.240Z,39.43
2019-03-25T22:11:02.266Z,39.48
2019-03-25T22:11:28.421Z,39.48
2019-03-25T22:11:54.257Z,39.5
2019-03-25T22:12:20.351Z,39.53
2019-03-25T22:12:46.274Z,39.54
2019-03-25T22:13:12.333Z,39.54
2019-03-25T22:13:38.268Z,39.56
2019-03-25T22:14:04.783Z,39.59
2019-03-25T22:14:30.340Z,39.55
2019-03-25T22:14:56.270Z,39.5
2019-03-25T22:15:22.267Z,39.55
2019-03-25T22:15:48.270Z,39.58
2019-03-25T22:16:14.329Z,39.55
2019-03-25T22:16:40.339Z,39.58
2019-03-25T22:17:06.270Z,39.59
2019-03-25T22:17:32.293Z,39.58
2019-03-25T22:17:58.267Z,39.58
2019-03-25T22:18:24.267Z,39.59
2019-03-25T22:18:50.346Z,39.54
2019-03-25T22:19:16.275Z,39.51
2019-03-25T22:19:42.268Z,39.54
2019-03-25T22:20:08.272Z,39.56
2019-03-25T22:20:34.269Z,39.58
2019-03-25T22:21:00.354Z,39.57
2019-03-25T22:21:26.271Z,39.53
2019-03-25T22:21:52.286Z,39.56
2019-03-25T22:22:18.691Z,39.55
2019-03-25T22:22:44.275Z,39.55
2019-03-25T22:23:10.357Z,39.53
2019-03-25T22:23:36.279Z,39.56
2019-03-25T22:24:02.286Z,39.61
2019-03-25T22:24:28.281Z,39.56
2019-03-25T22:25:20.427Z,39.56
2019-03-25T22:25:46.278Z,39.52
2019-03-25T22:26:12.769Z,39.54
2019-03-25T22:26:38.285Z,39.55
2019-03-25T22:27:04.845Z,39.57
2019-03-25T22:27:30.359Z,39.55
2019-03-25T22:27:56.294Z,39.56
2019-03-25T22:28:22.356Z,39.54
2019-03-25T22:28:48.279Z,39.54
2019-03-25T22:29:14.278Z,39.5
2019-03-25T22:29:40.363Z,39.51
2019-03-25T22:30:06.286Z,39.53
2019-03-25T22:30:32.292Z,39.49
2019-03-25T22:30:58.292Z,39.52
2019-03-25T22:31:24.354Z,39.49
2019-03-25T22:31:50.365Z,39.54
2019-03-25T22:32:16.291Z,39.54
2019-03-25T22:32:42.292Z,39.51
2019-03-25T22:33:08.291Z,39.48
2019-03-25T22:33:34.302Z,39.58
2019-03-25T22:34:00.370Z,39.48
2019-03-25T22:34:26.726Z,39.52
2019-03-25T22:34:52.363Z,39.52
2019-03-25T22:35:18.286Z,39.53
2019-03-25T22:35:44.295Z,39.54
2019-03-25T22:36:10.381Z,39.49
2019-03-25T22:36:36.312Z,39.5
2019-03-25T22:37:02.315Z,39.56
2019-03-25T22:37:28.305Z,39.54
2019-03-25T22:37:54.298Z,39.54
2019-03-25T22:38:20.418Z,39.54
2019-03-25T22:38:46.294Z,39.6
2019-03-25T22:39:12.312Z,39.59
2019-03-25T22:39:38.304Z,39.58
2019-03-25T22:40:04.383Z,39.57
2019-03-25T22:40:30.380Z,39.56
2019-03-25T22:40:56.310Z,39.56
2019-03-25T22:41:22.315Z,39.54
2019-03-25T22:41:48.477Z,39.54
2019-03-25T22:42:14.304Z,39.56